Time;durP1;ratioP1;P1;durP2;ratioP2;P2;SDS_P1;SDS_P2;PMS_P1;PMS_P2;Temp;Humidity;BMP_temperature;BMP_pressure;BME280_temperature;BME280_humidity;BME280_pressure;Samples;Min_cycle;Max_cycle;Signal;HPM_P1;HPM_P2
2023/06/13 00:02:20;;;;;;;5.10;4.30;;;;;;;12.03;81.15;100289.15;180330;1260;58537;-61
2023/06/13 00:06:27;;;;;;;4.10;3.50;;;;;;;11.96;81.11;100281.21;180255;1260;43721;-62
2023/06/13 00:10:31;;;;;;;5.30;4.40;;;;;;;11.81;83.01;100277.00;180357;1258;44632;-63
2023/06/13 00:15:05;;;;;;;8.00;4.50;;;;;;;11.71;83.07;100275.76;180178;1260;46677;-61
2023/06/13 00:19:11;;;;;;;3.90;3.60;;;;;;;11.70;83.04;100271.57;179988;1258;44599;-61
2023/06/13 00:23:16;;;;;;;6.10;5.30;;;;;;;11.68;82.36;100269.80;180137;1262;58717;-61
2023/06/13 00:27:21;;;;;;;3.70;3.40;;;;;;;11.61;83.60;100267.35;180107;1259;46146;-61
2023/06/13 00:31:28;;;;;;;13.00;4.30;;;;;;;11.56;83.77;100263.12;180291;1259;45969;-61
2023/06/13 00:35:35;;;;;;;5.70;4.70;;;;;;;11.57;84.29;100263.46;180285;1259;44077;-61
2023/06/13 00:39:43;;;;;;;10.10;5.90;;;;;;;11.56;84.81;100263.48;180248;1259;46048;-61
2023/06/13 00:43:47;;;;;;;5.70;5.00;;;;;;;11.60;84.32;100256.98;180114;1259;58413;-60
2023/06/13 00:48:02;;;;;;;8.30;4.40;;;;;;;11.60;83.62;100254.53;180225;1259;44944;-62
2023/06/13 00:52:09;;;;;;;7.00;4.80;;;;;;;11.56;83.76;100252.44;180157;1260;44195;-61
2023/06/13 00:56:44;;;;;;;5.50;4.60;;;;;;;11.50;83.77;100244.87;180242;1259;43662;-59
2023/06/13 01:00:49;;;;;;;5.70;3.80;;;;;;;11.46;83.93;100244.46;180509;1258;45940;-61
2023/06/13 01:04:54;;;;;;;5.90;4.30;;;;;;;11.42;84.16;100248.40;180465;1259;58254;-62
2023/06/13 01:09:05;;;;;;;5.80;4.60;;;;;;;11.36;84.99;100244.30;180526;1258;44027;-61
2023/06/13 01:13:30;;;;;;;4.20;3.20;;;;;;;11.29;84.46;100243.25;180519;1260;45131;-61
2023/06/13 01:17:41;;;;;;;4.90;4.40;;;;;;;11.27;84.50;100245.90;180298;1260;44651;-61
2023/06/13 01:21:46;;;;;;;11.40;6.00;;;;;;;11.24;86.09;100240.86;180381;1259;43764;-61
2023/06/13 01:26:09;;;;;;;5.30;4.70;;;;;;;11.13;86.14;100238.41;180380;1259;61005;-60
2023/06/13 01:30:15;;;;;;;6.40;4.50;;;;;;;11.05;85.55;100232.17;180373;1259;43550;-61
2023/06/13 01:34:24;;;;;;;6.20;4.70;;;;;;;11.01;85.57;100233.74;180323;1259;44956;-61
2023/06/13 01:38:32;;;;;;;7.40;5.00;;;;;;;10.99;85.65;100227.34;180471;1259;46124;-61
2023/06/13 01:42:37;;;;;;;9.70;6.90;;;;;;;10.97;85.91;100218.95;180215;1260;46043;-60
2023/06/13 01:47:01;;;;;;;5.50;4.70;;;;;;;10.97;85.96;100220.38;180241;1260;59705;-61
2023/06/13 01:51:39;;;;;;;7.20;5.60;;;;;;;10.91;86.19;100220.37;180000;1259;46098;-61
2023/06/13 01:55:49;;;;;;;8.20;5.70;;;;;;;10.84;88.38;100222.88;180137;1259;43697;-61
2023/06/13 01:59:56;;;;;;;7.70;5.60;;;;;;;10.74;88.88;100215.60;180201;1260;44909;-61
2023/06/13 02:04:02;;;;;;;10.10;6.70;;;;;;;10.61;87.59;100216.45;180167;1259;46073;-61
2023/06/13 02:08:06;;;;;;;7.90;5.20;;;;;;;10.56;87.13;100212.46;180412;1260;58952;-61
2023/06/13 02:12:11;;;;;;;13.60;5.50;;;;;;;10.56;87.17;100215.23;180386;1263;45873;-61
2023/06/13 02:16:14;;;;;;;14.70;5.30;;;;;;;10.45;86.28;100209.59;180481;1261;44921;-61
2023/06/13 02:20:18;;;;;;;20.20;5.30;;;;;;;10.20;86.47;100209.11;180293;1260;44913;-61
2023/06/13 02:24:21;;;;;;;7.00;4.90;;;;;;;9.93;85.73;100201.53;180360;1259;45823;-61
2023/06/13 02:28:25;;;;;;;5.00;3.80;;;;;;;9.74;87.17;100198.77;180330;1261;58914;-60
2023/06/13 02:32:29;;;;;;;9.40;5.70;;;;;;;9.63;87.95;100194.04;180284;1261;45046;-60
2023/06/13 02:36:33;;;;;;;8.50;5.40;;;;;;;9.51;88.84;100193.00;180386;1260;43839;-61
2023/06/13 02:40:38;;;;;;;5.90;4.30;;;;;;;9.47;89.89;100196.35;180346;1259;250398;-59
2023/06/13 02:44:42;;;;;;;8.20;5.00;;;;;;;9.49;90.94;100193.89;180430;1259;45958;-60
2023/06/13 02:48:50;;;;;;;8.30;5.60;;;;;;;9.50;91.60;100188.33;180475;1259;58407;-60
2023/06/13 02:53:05;;;;;;;7.80;5.50;;;;;;;9.55;93.11;100187.71;180519;1259;44457;-60
2023/06/13 02:57:11;;;;;;;8.50;5.60;;;;;;;9.66;94.60;100191.66;180327;1259;44871;-60
2023/06/13 03:01:14;;;;;;;8.70;5.10;;;;;;;9.76;96.26;100191.41;180447;1259;45954;-60
2023/06/13 03:05:18;;;;;;;7.50;5.10;;;;;;;9.84;95.93;100184.69;180473;1259;43735;-60
2023/06/13 03:09:21;;;;;;;7.10;5.40;;;;;;;9.78;95.14;100179.86;180355;1261;59094;-60
2023/06/13 03:13:27;;;;;;;5.50;4.50;;;;;;;9.78;96.36;100186.48;180445;1260;46193;-60
2023/06/13 03:17:33;;;;;;;8.20;5.30;;;;;;;9.71;96.60;100185.55;180280;1260;45939;-61
2023/06/13 03:21:37;;;;;;;10.20;5.70;;;;;;;9.78;97.05;100182.86;180343;1259;43954;-61
2023/06/13 03:25:43;;;;;;;7.60;5.30;;;;;;;9.87;97.47;100190.31;180504;1261;44703;-61
2023/06/13 03:29:46;;;;;;;8.10;6.00;;;;;;;9.87;98.87;100203.80;180295;1260;58429;-61
2023/06/13 03:33:50;;;;;;;11.50;7.10;;;;;;;9.98;98.19;100196.43;180330;1259;43915;-61
2023/06/13 03:37:54;;;;;;;8.10;5.90;;;;;;;10.08;98.91;100201.74;180387;1257;45949;-61
2023/06/13 03:42:02;;;;;;;10.80;7.60;;;;;;;10.24;99.25;100195.51;180263;1259;45862;-60
2023/06/13 03:46:05;;;;;;;11.40;7.80;;;;;;;10.42;98.63;100191.83;180135;1257;46018;-61
2023/06/13 03:50:09;;;;;;;11.70;7.00;;;;;;;10.58;99.21;100199.55;180029;1260;60152;-61
2023/06/13 03:54:13;;;;;;;9.20;6.60;;;;;;;10.77;98.81;100200.61;180492;1260;43925;-62
2023/06/13 03:58:18;;;;;;;8.50;7.00;;;;;;;10.96;98.13;100201.69;180482;1259;43651;-61
2023/06/13 04:02:21;;;;;;;7.60;6.60;;;;;;;11.11;97.86;100203.06;180571;1260;43778;-61
2023/06/13 04:06:28;;;;;;;8.80;6.20;;;;;;;11.26;98.28;100209.82;180432;1257;43614;-60
2023/06/13 04:10:34;;;;;;;12.10;8.20;;;;;;;11.36;98.17;100210.16;180642;1257;58427;-60
2023/06/13 04:14:37;;;;;;;6.00;5.40;;;;;;;11.48;96.97;100208.08;180461;1259;43799;-61
2023/06/13 04:18:42;;;;;;;10.10;7.90;;;;;;;11.56;98.06;100202.80;180437;1260;43794;-60
2023/06/13 04:22:47;;;;;;;12.70;8.50;;;;;;;11.68;97.48;100196.61;180395;1261;44792;-61
2023/06/13 04:26:51;;;;;;;18.40;8.80;;;;;;;11.86;97.09;100193.83;180501;1260;43627;-62
2023/06/13 04:30:56;;;;;;;13.70;7.10;;;;;;;12.08;97.35;100199.30;180360;1257;58732;-62
2023/06/13 04:35:01;;;;;;;12.60;7.60;;;;;;;12.36;96.23;100201.61;180404;1262;45012;-61
2023/06/13 04:39:17;;;;;;;10.40;7.10;;;;;;;12.58;94.20;100206.05;180336;1261;44965;-61
2023/06/13 04:43:21;;;;;;;17.40;10.90;;;;;;;12.75;93.35;100207.20;180203;1260;43912;-62
2023/06/13 04:47:30;;;;;;;18.60;12.40;;;;;;;12.90;93.16;100208.99;180332;1260;43487;-61
2023/06/13 04:51:58;;;;;;;26.10;23.50;;;;;;;13.10;93.31;100203.83;180152;1263;58500;-59
2023/06/13 04:56:04;;;;;;;24.70;20.50;;;;;;;13.32;92.81;100203.33;179899;1260;44953;-59
2023/06/13 05:00:10;;;;;;;20.40;19.70;;;;;;;13.67;93.51;100197.42;180207;1259;44589;-60
2023/06/13 05:04:15;;;;;;;12.40;11.10;;;;;;;14.07;92.96;100195.52;180306;1260;45961;-59
2023/06/13 05:08:21;;;;;;;11.10;6.90;;;;;;;14.29;91.15;100199.07;180283;1259;43721;-59
2023/06/13 05:12:24;;;;;;;12.80;9.00;;;;;;;14.47;91.36;100203.58;180279;1262;57571;-61
2023/06/13 05:16:29;;;;;;;11.70;7.20;;;;;;;14.69;91.62;100203.83;180314;1259;46034;-59
2023/06/13 05:20:35;;;;;;;40.10;31.30;;;;;;;14.87;88.62;100204.05;180485;1259;45963;-59
2023/06/13 05:24:39;;;;;;;12.60;10.20;;;;;;;14.91;88.52;100204.78;180429;1262;45336;-59
2023/06/13 05:29:09;;;;;;;12.80;8.60;;;;;;;14.84;89.43;100204.39;180306;1260;43513;-58
2023/06/13 05:33:14;;;;;;;15.40;10.20;;;;;;;14.79;90.37;100201.08;180177;1258;60168;-58
2023/06/13 05:37:19;;;;;;;14.20;8.20;;;;;;;14.93;90.39;100202.23;180440;1257;45493;-60
2023/06/13 05:41:22;;;;;;;11.10;8.20;;;;;;;15.02;89.69;100205.90;181030;1257;43655;-60
2023/06/13 05:45:26;;;;;;;7.80;6.70;;;;;;;15.16;89.43;100205.93;180896;1260;44857;-59
2023/06/13 05:49:29;;;;;;;11.70;7.90;;;;;;;15.25;89.92;100198.58;180545;1259;45929;-59
2023/06/13 05:53:41;;;;;;;11.50;9.40;;;;;;;15.40;90.34;100195.30;180351;1258;59068;-59
2023/06/13 05:57:45;;;;;;;11.10;7.20;;;;;;;15.67;89.33;100193.55;180546;1260;44855;-59
2023/06/13 06:01:50;;;;;;;14.30;8.50;;;;;;;15.90;87.08;100193.01;180007;1261;43743;-60
2023/06/13 06:05:54;;;;;;;13.20;8.50;;;;;;;16.04;84.48;100189.68;179982;1258;44990;-59
2023/06/13 06:09:57;;;;;;;8.30;7.50;;;;;;;16.16;83.59;100190.44;180078;1262;43620;-59
2023/06/13 06:14:01;;;;;;;9.90;8.20;;;;;;;16.19;83.31;100192.05;180208;1260;58897;-59
2023/06/13 06:18:04;;;;;;;18.60;9.90;;;;;;;16.30;83.09;100194.33;180257;1261;45319;-59
2023/06/13 06:22:08;;;;;;;11.10;9.20;;;;;;;16.40;83.18;100193.42;180280;1262;44749;-59
2023/06/13 06:26:12;;;;;;;8.50;7.70;;;;;;;16.47;82.86;100188.33;180186;1260;45960;-59
2023/06/13 06:30:16;;;;;;;12.50;9.60;;;;;;;16.55;82.67;100192.73;180237;1260;43516;-59
2023/06/13 06:34:21;;;;;;;16.50;10.40;;;;;;;16.67;82.32;100197.42;180441;1258;57215;-60
2023/06/13 06:43:01;;;;;;;11.50;8.10;;;;;;;16.89;80.25;100207.70;162964;1257;43496;-62
2023/06/13 06:47:05;;;;;;;13.00;7.90;;;;;;;16.85;79.82;100206.26;181689;1259;43443;-60
2023/06/13 06:52:04;;;;;;;9.90;6.80;;;;;;;16.91;80.73;100206.85;181896;1258;43004;-61
2023/06/13 06:56:08;;;;;;;10.80;7.60;;;;;;;16.91;78.95;100200.48;181856;1259;59781;-60
2023/06/13 07:00:14;;;;;;;11.80;7.00;;;;;;;16.96;79.02;100195.17;181827;1259;43084;-60
2023/06/13 07:04:18;;;;;;;16.00;8.30;;;;;;;16.99;79.79;100190.44;181841;1260;43049;-60
2023/06/13 07:08:21;;;;;;;13.00;7.80;;;;;;;16.92;81.78;100173.64;181867;1258;43091;-59
2023/06/13 07:12:24;;;;;;;16.60;6.70;;;;;;;16.83;81.88;100176.56;181799;1258;43086;-59
2023/06/13 07:16:27;;;;;;;19.90;8.80;;;;;;;16.94;81.45;100186.85;181561;1259;58456;-60
2023/06/13 07:20:31;;;;;;;11.10;6.90;;;;;;;17.18;82.08;100194.45;181779;1259;43256;-61
2023/06/13 07:24:34;;;;;;;9.10;7.30;;;;;;;17.43;82.91;100196.13;181804;1258;43625;-59
2023/06/13 07:28:38;;;;;;;8.20;7.40;;;;;;;17.61;80.04;100194.11;181638;1260;43096;-59
2023/06/13 07:33:08;;;;;;;10.60;7.50;;;;;;;17.77;78.72;100189.16;181709;1259;43697;-59
2023/06/13 07:37:12;;;;;;;13.70;7.80;;;;;;;17.98;78.60;100179.04;181662;1259;59448;-60
2023/06/13 07:41:44;;;;;;;11.60;6.80;;;;;;;18.18;79.25;100185.57;181713;1258;43169;-59
2023/06/13 07:45:47;;;;;;;10.30;6.40;;;;;;;18.39;78.15;100176.14;181812;1258;43070;-60
2023/06/13 07:49:51;;;;;;;10.80;6.90;;;;;;;18.56;76.34;100177.29;181681;1259;43745;-61
2023/06/13 07:53:54;;;;;;;8.50;7.60;;;;;;;18.66;75.57;100172.81;181857;1259;43701;-59
2023/06/13 07:57:57;;;;;;;8.50;6.60;;;;;;;18.73;75.17;100170.70;181622;1259;59378;-59
2023/06/13 08:02:02;;;;;;;9.00;7.40;;;;;;;18.75;73.58;100167.66;181658;1258;43079;-60
2023/06/13 08:06:06;;;;;;;9.60;7.10;;;;;;;18.69;74.03;100170.67;181826;1258;42995;-60
2023/06/13 08:10:09;;;;;;;12.50;7.00;;;;;;;18.73;74.26;100172.77;181634;1259;43115;-60
2023/06/13 08:14:12;;;;;;;11.30;6.30;;;;;;;18.83;73.41;100178.02;181884;1259;43652;-62
2023/06/13 08:18:16;;;;;;;10.80;6.10;;;;;;;18.88;73.44;100176.73;181876;1260;58370;-60
2023/06/13 08:22:19;;;;;;;7.20;6.30;;;;;;;19.02;74.06;100180.48;181832;1258;43114;-59
2023/06/13 08:26:24;;;;;;;10.60;7.30;;;;;;;19.15;72.40;100176.97;181807;1258;43926;-60
2023/06/13 08:30:28;;;;;;;16.60;9.30;;;;;;;19.20;70.24;100173.84;181860;1259;43661;-61
2023/06/13 08:34:32;;;;;;;13.40;9.00;;;;;;;19.20;70.50;100173.84;181662;1258;43079;-61
2023/06/13 08:38:35;;;;;;;20.90;15.00;;;;;;;19.27;71.37;100168.20;181640;1262;59310;-60
2023/06/13 08:43:18;;;;;;;13.70;8.60;;;;;;;19.44;71.14;100161.64;181777;1259;43499;-60
2023/06/13 08:47:21;;;;;;;10.10;8.60;;;;;;;19.49;71.35;100161.91;181568;1258;43056;-60
2023/06/13 08:51:52;;;;;;;8.80;6.70;;;;;;;19.63;70.57;100161.88;181811;1259;43125;-60
2023/06/13 08:56:00;;;;;;;9.70;6.70;;;;;;;19.81;70.29;100166.85;181792;1259;44014;-60
2023/06/13 09:00:12;;;;;;;7.90;5.10;;;;;;;19.96;69.55;100165.89;181701;1258;57959;-60
2023/06/13 09:04:16;;;;;;;6.60;4.90;;;;;;;20.14;68.02;100164.48;181686;1258;43779;-60
2023/06/13 09:08:20;;;;;;;18.10;5.60;;;;;;;20.27;68.32;100166.23;181562;1259;43684;-60
2023/06/13 09:12:34;;;;;;;7.00;5.30;;;;;;;20.43;66.83;100170.15;181619;1260;43162;-61
2023/06/13 09:16:39;;;;;;;7.50;5.00;;;;;;;20.60;66.56;100172.73;181659;1259;43710;-61
2023/06/13 09:21:13;;;;;;;10.60;6.30;;;;;;;20.68;65.08;100171.58;181648;1258;57675;-60
2023/06/13 09:25:18;;;;;;;7.40;5.40;;;;;;;20.94;65.39;100169.75;181732;1259;43777;-60
2023/06/13 09:29:36;;;;;;;8.50;5.50;;;;;;;21.11;63.78;100168.55;181673;1259;43853;-61
2023/06/13 09:33:44;;;;;;;6.80;6.10;;;;;;;21.27;65.96;100162.85;181677;1259;43632;-59
2023/06/13 09:37:48;;;;;;;6.40;5.00;;;;;;;21.36;62.75;100159.44;181635;1260;43404;-60
2023/06/13 09:42:12;;;;;;;5.10;4.50;;;;;;;21.56;62.70;100156.14;181728;1259;58418;-62
2023/06/13 09:46:16;;;;;;;6.90;4.70;;;;;;;21.69;62.45;100154.45;181618;1260;43115;-60
2023/06/13 09:50:22;;;;;;;5.10;4.50;;;;;;;21.70;63.86;100148.02;181505;1260;43704;-61
2023/06/13 09:54:29;;;;;;;5.30;4.50;;;;;;;21.73;60.95;100148.11;181686;1258;43082;-60
2023/06/13 09:58:59;;;;;;;6.90;4.00;;;;;;;21.78;60.84;100140.50;181709;1259;43007;-59
2023/06/13 10:03:07;;;;;;;6.20;3.80;;;;;;;21.72;60.39;100138.36;181643;1260;59054;-60
2023/06/13 10:07:23;;;;;;;9.60;5.70;;;;;;;21.72;60.77;100134.15;181696;1260;43806;-60
2023/06/13 10:11:31;;;;;;;5.40;4.40;;;;;;;21.84;60.70;100130.27;181766;1259;43764;-61
2023/06/13 10:15:39;;;;;;;5.10;3.90;;;;;;;21.83;60.22;100129.15;181649;1258;43047;-61
2023/06/13 10:19:43;;;;;;;8.00;4.60;;;;;;;21.88;60.44;100130.11;181692;1260;43907;-60
2023/06/13 10:23:49;;;;;;;9.90;4.30;;;;;;;21.91;61.19;100122.15;181820;1260;58387;-60
2023/06/13 10:27:55;;;;;;;11.10;4.60;;;;;;;22.16;59.68;100119.58;181641;1260;43141;-60
2023/06/13 10:32:15;;;;;;;4.60;3.70;;;;;;;22.32;59.95;100117.35;181742;1259;43004;-61
2023/06/13 10:36:36;;;;;;;6.00;3.10;;;;;;;22.49;59.05;100113.86;181638;1258;43769;-60
2023/06/13 10:40:42;;;;;;;4.20;3.30;;;;;;;22.68;58.83;100110.44;181685;1258;43007;-60
2023/06/13 10:44:54;;;;;;;7.60;4.00;;;;;;;22.83;58.27;100110.96;181694;1258;58032;-60
2023/06/13 10:48:59;;;;;;;5.80;3.60;;;;;;;22.95;60.68;100110.64;181649;1259;43028;-60
2023/06/13 10:53:03;;;;;;;5.30;3.10;;;;;;;22.99;58.11;100109.00;181574;1258;43809;-60
2023/06/13 10:57:07;;;;;;;6.80;4.00;;;;;;;23.14;56.99;100104.67;181783;1259;43094;-60
2023/06/13 11:01:27;;;;;;;5.90;4.10;;;;;;;23.14;56.64;100099.70;181521;1259;43686;-61
2023/06/13 11:05:33;;;;;;;4.20;3.00;;;;;;;23.17;54.13;100096.65;181701;1260;58584;-61
2023/06/13 11:10:01;;;;;;;9.60;3.70;;;;;;;23.30;53.83;100093.95;181791;1260;43832;-61
2023/06/13 11:14:06;;;;;;;11.70;6.20;;;;;;;23.15;52.04;100095.11;181526;1260;43086;-60
2023/06/13 11:18:10;;;;;;;6.30;3.60;;;;;;;22.95;52.95;100092.83;181711;1260;43749;-61
2023/06/13 11:22:13;;;;;;;10.40;3.80;;;;;;;22.87;52.77;100085.84;181720;1259;43629;-61
2023/06/13 11:26:20;;;;;;;5.80;3.30;;;;;;;22.68;53.37;100082.55;181744;1258;58160;-60
2023/06/13 11:30:25;;;;;;;5.60;4.20;;;;;;;22.48;53.59;100082.18;181684;1258;43754;-62
2023/06/13 11:34:31;;;;;;;;;;;;;;;22.28;55.41;100075.46;181625;1259;43108;-61
2023/06/13 11:38:42;;;;;;;7.30;4.60;;;;;;;22.05;55.90;100081.44;181744;1259;42820;-60
2023/06/13 11:42:46;;;;;;;6.20;3.90;;;;;;;21.78;55.64;100075.11;181716;1259;43313;-60
2023/06/13 11:46:50;;;;;;;8.00;3.00;;;;;;;21.59;55.71;100073.72;181738;1260;58310;-61
2023/06/13 11:51:16;;;;;;;5.10;3.90;;;;;;;21.43;57.08;100075.53;181721;1259;43123;-60
2023/06/13 11:55:20;;;;;;;4.00;2.60;;;;;;;21.19;57.56;100081.84;181757;1260;43038;-60
2023/06/13 11:59:25;;;;;;;3.10;2.80;;;;;;;21.05;58.08;100082.40;181713;1257;43078;-60
2023/06/13 12:03:29;;;;;;;7.50;3.70;;;;;;;21.01;59.67;100081.99;181676;1259;43094;-60
2023/06/13 12:07:33;;;;;;;3.70;2.80;;;;;;;20.91;59.04;100078.74;181642;1260;58215;-61
2023/06/13 12:11:37;;;;;;;4.50;2.20;;;;;;;20.87;59.44;100072.65;181656;1259;43064;-61
2023/06/13 12:15:40;;;;;;;5.70;3.50;;;;;;;20.98;59.86;100071.63;181778;1259;43029;-60
2023/06/13 12:19:44;;;;;;;7.80;2.60;;;;;;;21.02;59.75;100069.23;181805;1260;43055;-61
2023/06/13 12:23:47;;;;;;;4.40;2.80;;;;;;;21.03;59.04;100069.11;181738;1260;43383;-60
2023/06/13 12:27:51;;;;;;;6.20;3.80;;;;;;;20.99;57.65;100069.55;181810;1259;58388;-60
2023/06/13 12:31:59;;;;;;;4.20;2.50;;;;;;;20.84;57.49;100073.23;181811;1259;43344;-62
2023/06/13 12:36:04;;;;;;;7.80;3.30;;;;;;;20.79;58.25;100077.02;181725;1259;43024;-60
2023/06/13 12:40:12;;;;;;;6.00;2.90;;;;;;;20.71;57.20;100065.98;181560;1259;43262;-62
2023/06/13 12:44:17;;;;;;;6.20;3.60;;;;;;;20.59;56.79;100061.71;181779;1259;43017;-60
2023/06/13 12:48:20;;;;;;;5.60;2.80;;;;;;;20.53;58.24;100070.11;181741;1259;57332;-60
2023/06/13 12:52:26;;;;;;;6.70;4.20;;;;;;;20.54;58.13;100071.58;181728;1260;43148;-60
2023/06/13 12:56:29;;;;;;;7.30;3.70;;;;;;;20.55;58.09;100068.76;181661;1259;43234;-60
2023/06/13 13:00:32;;;;;;;5.80;3.20;;;;;;;20.53;56.88;100066.85;181707;1260;43120;-61
2023/06/13 13:04:37;;;;;;;4.40;3.10;;;;;;;20.52;56.93;100066.44;181686;1260;43831;-61
2023/06/13 13:08:40;;;;;;;3.60;2.60;;;;;;;20.47;57.70;100061.52;181581;1259;58130;-62
2023/06/13 13:12:43;;;;;;;5.80;2.90;;;;;;;20.41;57.43;100062.24;181746;1258;43822;-62
2023/06/13 13:16:46;;;;;;;5.30;2.90;;;;;;;20.32;57.16;100060.73;181716;1259;43323;-57
2023/06/13 13:20:49;;;;;;;7.50;3.10;;;;;;;20.32;57.87;100060.81;181600;1259;43082;-57
2023/06/13 13:24:52;;;;;;;3.30;3.00;;;;;;;20.29;57.95;100058.55;181794;1260;42968;-57
2023/06/13 13:28:56;;;;;;;3.90;2.60;;;;;;;20.32;59.68;100057.23;181643;1262;59865;-57
2023/06/13 13:32:59;;;;;;;4.60;3.50;;;;;;;20.30;63.21;100059.20;181764;1260;43643;-57
2023/06/13 13:37:02;;;;;;;4.60;2.60;;;;;;;20.25;65.70;100059.59;181831;1260;43826;-57
2023/06/13 13:41:05;;;;;;;4.20;3.40;;;;;;;20.17;62.28;100054.70;181702;1260;43468;-58
2023/06/13 13:45:08;;;;;;;4.80;3.30;;;;;;;20.01;60.31;100058.98;181766;1259;43046;-57
2023/06/13 13:50:04;;;;;;;4.40;2.70;;;;;;;19.68;61.80;100058.57;181825;1260;59462;-57
2023/06/13 13:54:08;;;;;;;4.90;3.30;;;;;;;19.26;66.96;100066.39;181713;1259;43201;-57
2023/06/13 13:58:11;;;;;;;8.00;4.60;;;;;;;18.58;73.07;100074.80;181769;1259;43007;-57
2023/06/13 14:02:14;;;;;;;6.50;3.30;;;;;;;17.90;76.23;100091.09;181776;1262;43200;-58
2023/06/13 14:06:17;;;;;;;5.00;3.60;;;;;;;17.49;80.32;100097.48;181772;1259;43017;-58
2023/06/13 14:10:20;;;;;;;5.30;3.50;;;;;;;17.19;84.75;100101.48;181762;1259;58783;-58
2023/06/13 14:14:25;;;;;;;6.90;4.20;;;;;;;16.92;93.31;100098.02;181664;1260;43131;-57
2023/06/13 14:18:28;;;;;;;5.90;3.30;;;;;;;16.69;96.82;100101.13;181757;1262;42977;-56
2023/06/13 14:22:31;;;;;;;6.80;4.10;;;;;;;16.55;98.20;100103.43;181787;1259;43110;-55
2023/06/13 14:26:34;;;;;;;4.60;4.10;;;;;;;16.55;99.94;100100.48;181736;1261;43322;-56
2023/06/13 14:30:38;;;;;;;5.10;4.50;;;;;;;16.68;100.00;100097.09;181727;1260;58401;-57
2023/06/13 14:34:41;;;;;;;7.70;5.00;;;;;;;16.87;100.00;100092.08;181787;1259;43100;-56
2023/06/13 14:38:45;;;;;;;5.20;4.10;;;;;;;17.04;100.00;100088.70;181692;1260;43105;-57
2023/06/13 14:42:48;;;;;;;5.10;4.10;;;;;;;17.15;100.00;100083.83;181598;1260;183331;-57
2023/06/13 14:46:51;;;;;;;4.90;4.40;;;;;;;17.24;100.00;100077.84;181721;1260;43080;-59
2023/06/13 14:50:55;;;;;;;5.10;4.00;;;;;;;17.26;100.00;100078.14;181721;1260;58610;-59
2023/06/13 14:54:58;;;;;;;5.50;4.20;;;;;;;17.26;100.00;100083.52;181701;1260;43710;-57
2023/06/13 14:59:01;;;;;;;4.20;3.70;;;;;;;17.27;100.00;100086.96;181764;1258;43019;-58
2023/06/13 15:03:06;;;;;;;5.40;3.50;;;;;;;17.30;100.00;100090.30;181686;1259;43129;-56
2023/06/13 15:07:10;;;;;;;4.00;3.60;;;;;;;17.33;100.00;100090.45;181778;1260;43639;-58
2023/06/13 15:11:13;;;;;;;5.00;4.60;;;;;;;17.37;99.98;100089.27;181680;1260;58455;-57
2023/06/13 15:15:16;;;;;;;5.50;3.60;;;;;;;17.41;100.00;100085.48;181737;1260;43042;-57
2023/06/13 15:19:20;;;;;;;4.40;3.20;;;;;;;17.44;100.00;100083.26;181821;1257;43429;-57
2023/06/13 15:23:23;;;;;;;9.20;4.40;;;;;;;17.43;100.00;100081.23;181834;1260;43385;-56
2023/06/13 15:27:57;;;;;;;5.30;3.70;;;;;;;17.31;99.51;100082.38;181842;1259;43659;-56
2023/06/13 15:32:00;;;;;;;4.20;3.70;;;;;;;16.98;97.27;100084.67;181667;1260;58629;-57
2023/06/13 15:36:03;;;;;;;4.20;3.30;;;;;;;16.70;100.00;100087.05;181811;1260;44045;-55
2023/06/13 15:40:19;;;;;;;6.80;4.10;;;;;;;16.44;100.00;100090.77;181609;1260;42978;-57
2023/06/13 15:44:22;;;;;;;5.20;3.90;;;;;;;16.16;99.65;100089.45;181764;1260;43708;-54
2023/06/13 15:48:26;;;;;;;4.10;3.20;;;;;;;16.00;99.09;100086.98;181770;1259;43641;-56
2023/06/13 15:52:29;;;;;;;3.50;3.20;;;;;;;15.87;96.38;100079.95;181839;1259;58423;-56
2023/06/13 15:56:33;;;;;;;4.50;3.40;;;;;;;15.79;95.67;100088.91;181891;1260;43795;-56
2023/06/13 16:00:40;;;;;;;3.40;3.10;;;;;;;15.76;95.38;100081.63;181734;1259;43989;-57
2023/06/13 16:04:44;;;;;;;7.20;4.10;;;;;;;15.83;98.67;100083.05;181768;1260;43184;-56
2023/06/13 16:08:48;;;;;;;4.20;2.90;;;;;;;15.96;99.49;100085.80;181713;1260;43033;-56
2023/06/13 16:12:52;;;;;;;3.50;3.20;;;;;;;16.05;100.00;100097.12;181856;1260;58005;-55
2023/06/13 16:16:55;;;;;;;4.10;3.70;;;;;;;16.07;97.49;100100.02;181633;1259;43665;-56
2023/06/13 16:20:58;;;;;;;4.30;3.90;;;;;;;16.18;97.37;100100.79;181864;1260;43750;-56
2023/06/13 16:25:01;;;;;;;7.80;3.00;;;;;;;16.27;96.71;100105.10;181764;1260;43075;-57
2023/06/13 16:29:05;;;;;;;3.50;3.20;;;;;;;16.36;94.81;100112.23;181709;1260;43184;-57
2023/06/13 16:33:09;;;;;;;3.30;2.90;;;;;;;16.39;91.20;100114.61;181677;1258;58337;-56
2023/06/13 16:37:12;;;;;;;9.50;3.90;;;;;;;16.37;89.03;100113.86;181845;1260;43112;-58
2023/06/13 16:41:15;;;;;;;4.10;2.40;;;;;;;16.32;90.52;100114.07;181818;1259;43035;-56
2023/06/13 16:45:18;;;;;;;3.40;2.70;;;;;;;16.26;88.21;100116.48;181736;1260;43157;-57
2023/06/13 16:49:22;;;;;;;3.60;3.20;;;;;;;16.27;88.43;100119.09;181809;1260;43805;-57
2023/06/13 16:53:26;;;;;;;5.80;4.70;;;;;;;16.27;88.18;100119.27;181746;1260;58017;-56
2023/06/13 16:57:30;;;;;;;10.20;9.00;;;;;;;16.29;87.67;100121.19;181817;1259;43090;-56
2023/06/13 17:01:35;;;;;;;8.80;5.10;;;;;;;16.33;87.02;100126.53;181775;1259;43019;-56
2023/06/13 17:05:38;;;;;;;5.30;3.80;;;;;;;16.37;85.96;100126.79;181726;1260;43874;-56
2023/06/13 17:09:41;;;;;;;5.50;3.90;;;;;;;16.42;85.29;100123.61;181707;1260;50303;-56
2023/06/13 17:13:45;;;;;;;3.50;2.80;;;;;;;16.45;86.18;100128.09;181773;1260;59535;-56
2023/06/13 17:18:03;;;;;;;5.10;3.30;;;;;;;16.47;86.57;100125.94;181757;1258;43699;-57
2023/06/13 17:22:06;;;;;;;5.20;4.60;;;;;;;16.50;85.98;100123.83;181810;1259;43105;-56
2023/06/13 17:26:10;;;;;;;7.30;5.00;;;;;;;16.51;85.27;100123.36;181580;1259;43800;-56
2023/06/13 17:30:17;;;;;;;8.80;4.90;;;;;;;16.49;85.95;100123.89;181785;1259;43693;-56
2023/06/13 17:34:23;;;;;;;8.30;4.90;;;;;;;16.50;85.89;100120.41;181639;1259;58167;-56
2023/06/13 17:39:20;;;;;;;7.60;5.40;;;;;;;16.49;85.62;100124.56;181845;1259;42992;-56
2023/06/13 17:43:50;;;;;;;6.30;5.30;;;;;;;16.48;86.10;100129.69;181776;1259;44490;-56
2023/06/13 17:47:54;;;;;;;3.90;3.30;;;;;;;16.44;86.22;100130.03;181866;1258;43132;-56
2023/06/13 17:51:58;;;;;;;6.40;3.50;;;;;;;16.39;86.24;100131.15;181789;1259;43686;-56
2023/06/13 17:56:01;;;;;;;4.20;3.40;;;;;;;16.38;86.39;100132.70;181776;1259;58213;-56
2023/06/13 18:00:06;;;;;;;8.10;4.10;;;;;;;16.36;87.24;100136.96;181662;1259;43147;-55
2023/06/13 18:04:09;;;;;;;3.70;2.60;;;;;;;16.29;88.43;100134.44;181730;1258;43474;-55
2023/06/13 18:08:13;;;;;;;7.20;3.80;;;;;;;16.22;88.54;100130.34;181669;1260;43697;-56
2023/06/13 18:12:16;;;;;;;5.60;3.10;;;;;;;16.17;88.09;100130.06;181699;1259;43068;-58
2023/06/13 18:16:24;;;;;;;4.10;3.50;;;;;;;16.13;87.98;100130.10;181801;1258;58598;-55
2023/06/13 18:20:28;;;;;;;3.30;2.80;;;;;;;16.07;87.96;100132.30;181872;1259;43090;-57
2023/06/13 18:24:34;;;;;;;3.80;3.20;;;;;;;16.00;88.16;100137.18;181876;1258;42970;-55
2023/06/13 18:28:38;;;;;;;5.00;3.50;;;;;;;15.96;88.13;100138.83;181785;1259;43634;-58
2023/06/13 18:32:48;;;;;;;7.80;3.40;;;;;;;15.93;88.41;100139.16;181824;1258;42988;-55
2023/06/13 18:36:51;;;;;;;7.60;6.10;;;;;;;15.91;88.47;100138.87;181698;1259;59789;-55
2023/06/13 18:41:11;;;;;;;12.60;7.50;;;;;;;15.91;88.58;100138.34;181852;1260;44195;-56
2023/06/13 18:45:15;;;;;;;14.70;10.90;;;;;;;15.92;89.30;100136.13;181866;1259;44084;-56
2023/06/13 18:49:22;;;;;;;18.60;11.90;;;;;;;15.92;89.66;100142.23;181880;1257;43730;-56
2023/06/13 18:53:26;;;;;;;16.20;10.40;;;;;;;15.87;88.60;100140.20;181874;1258;43374;-53
2023/06/13 18:57:29;;;;;;;11.00;7.10;;;;;;;15.74;87.74;100143.16;181735;1259;57660;-55